createdAt,value
2018-05-26T00:01:53.869Z,6.47
2018-05-26T00:04:19.942Z,6.17
2018-05-26T00:06:46.722Z,5.83
2018-05-26T00:09:12.763Z,5.73
2018-05-26T00:11:38.805Z,5.67
2018-05-26T00:14:04.826Z,6.30
2018-05-26T00:16:30.861Z,5.83
2018-05-26T00:18:56.902Z,5.73
2018-05-26T00:21:22.950Z,5.63
2018-05-26T00:23:48.978Z,5.33
2018-05-26T00:26:15.018Z,5.90
2018-05-26T00:28:41.042Z,5.50
2018-05-26T00:31:07.082Z,5.53
2018-05-26T00:33:33.115Z,5.80
2018-05-26T00:35:59.217Z,6.00
2018-05-26T00:38:25.986Z,6.33
2018-05-26T00:40:52.767Z,6.57
2018-05-26T00:43:18.797Z,6.00
2018-05-26T00:45:44.826Z,6.37
2018-05-26T00:48:10.850Z,6.73
2018-05-26T00:50:36.890Z,6.97
2018-05-26T00:53:02.934Z,6.90
2018-05-26T00:55:28.970Z,7.53
2018-05-26T00:57:55.010Z,6.37
2018-05-26T01:00:21.056Z,6.90
2018-05-26T01:02:47.090Z,7.33
2018-05-26T01:05:13.134Z,7.10
2018-05-26T01:07:39.177Z,7.30
2018-05-26T01:10:05.201Z,7.90
2018-05-26T01:12:31.235Z,8.97
2018-05-26T01:14:57.246Z,8.57
2018-05-26T01:17:23.275Z,9.17
2018-05-26T01:19:50.030Z,9.90
2018-05-26T01:22:16.809Z,9.17
2018-05-26T01:24:42.819Z,8.83
2018-05-26T01:27:09.590Z,9.47
2018-05-26T01:29:35.606Z,9.20
2018-05-26T01:32:02.365Z,9.10
2018-05-26T01:34:29.126Z,9.97
2018-05-26T01:36:55.153Z,9.00
2018-05-26T01:39:21.918Z,9.43
2018-05-26T01:41:47.942Z,10.90
2018-05-26T01:44:14.709Z,11.23
2018-05-26T01:46:40.730Z,10.43
2018-05-26T01:49:07.494Z,10.27
2018-05-26T01:51:33.524Z,9.33
2018-05-26T01:54:00.294Z,9.27
2018-05-26T01:56:26.301Z,10.47
2018-05-26T01:58:53.070Z,10.40
2018-05-26T02:01:19.089Z,9.83
2018-05-26T02:03:45.854Z,12.23
2018-05-26T02:06:12.613Z,11.23
2018-05-26T02:08:38.650Z,11.30
2018-05-26T02:11:04.665Z,11.00
2018-05-26T02:13:31.441Z,10.87
2018-05-26T02:15:57.465Z,12.20
2018-05-26T02:18:24.230Z,11.63
2018-05-26T02:20:50.257Z,11.50
2018-05-26T02:23:17.061Z,11.27
2018-05-26T02:25:43.101Z,10.70
2018-05-26T02:28:09.162Z,12.30
2018-05-26T02:30:35.918Z,11.70
2018-05-26T02:33:01.993Z,11.30
2018-05-26T02:35:28.013Z,10.93
2018-05-26T02:37:54.820Z,11.63
2018-05-26T02:40:20.851Z,11.33
2018-05-26T02:42:46.894Z,11.20
2018-05-26T02:45:12.905Z,12.20
2018-05-26T02:47:38.938Z,11.60
2018-05-26T02:50:04.970Z,11.70
2018-05-26T02:52:30.989Z,12.60
2018-05-26T02:54:57.025Z,11.70
2018-05-26T02:57:23.046Z,11.80
2018-05-26T02:59:49.823Z,11.93
2018-05-26T03:02:15.841Z,11.27
2018-05-26T03:04:48.910Z,11.57
2018-05-26T03:07:20.979Z,11.40
2018-05-26T03:09:53.191Z,12.80
2018-05-26T03:12:25.979Z,11.60
2018-05-26T03:14:52.689Z,10.53
2018-05-26T03:17:18.725Z,11.83
2018-05-26T03:19:44.745Z,12.00
2018-05-26T03:22:10.755Z,11.93
2018-05-26T03:24:37.511Z,11.80
2018-05-26T03:27:03.524Z,11.70
2018-05-26T03:29:29.533Z,11.53
2018-05-26T03:31:55.540Z,13.00
2018-05-26T03:34:21.557Z,12.00
2018-05-26T03:36:48.305Z,11.70
2018-05-26T03:39:15.069Z,11.60
2018-05-26T03:41:41.076Z,11.30
2018-05-26T03:44:07.094Z,11.37
2018-05-26T03:46:33.121Z,10.93
2018-05-26T03:48:59.167Z,11.60
2018-05-26T03:51:25.181Z,11.57
2018-05-26T03:53:51.206Z,12.87
2018-05-26T03:56:29.699Z,11.70
2018-05-26T03:59:08.867Z,11.90
2018-05-26T04:01:34.884Z,12.20
2018-05-26T04:04:01.644Z,12.57
2018-05-26T04:06:28.546Z,11.93
2018-05-26T04:08:54.577Z,11.27
2018-05-26T04:11:20.581Z,11.60
2018-05-26T04:13:46.594Z,11.30
2018-05-26T04:16:12.636Z,11.40
2018-05-26T04:18:38.642Z,12.03
2018-05-26T04:21:04.669Z,11.70
2018-05-26T04:23:30.692Z,12.13
2018-05-26T04:25:56.709Z,12.00
2018-05-26T04:28:22.718Z,12.40
2018-05-26T04:30:48.729Z,11.67
2018-05-26T04:33:15.481Z,11.80
2018-05-26T04:35:42.234Z,11.93
2018-05-26T04:38:08.985Z,11.87
2018-05-26T04:40:35.744Z,11.17
2018-05-26T04:43:03.857Z,12.00
2018-05-26T04:45:29.956Z,12.10
2018-05-26T04:47:56.704Z,11.97
2018-05-26T04:50:23.461Z,10.90
2018-05-26T04:52:51.426Z,12.00
2018-05-26T04:55:17.533Z,10.47
2018-05-26T04:57:43.538Z,10.70
2018-05-26T05:00:09.556Z,11.40
2018-05-26T05:02:36.313Z,11.60
2018-05-26T05:05:03.081Z,12.50
2018-05-26T05:07:29.085Z,11.23
2018-05-26T05:09:55.874Z,10.90
2018-05-26T05:12:21.898Z,11.60
2018-05-26T05:14:47.913Z,10.70
2018-05-26T05:17:14.693Z,11.00
2018-05-26T05:19:40.715Z,11.10
2018-05-26T05:22:07.477Z,10.27
2018-05-26T05:24:33.521Z,10.60
2018-05-26T05:26:59.549Z,9.83
2018-05-26T05:29:25.565Z,10.10
2018-05-26T05:31:52.341Z,9.50
2018-05-26T05:34:18.365Z,10.67
2018-05-26T05:36:45.148Z,9.47
2018-05-26T05:39:11.174Z,10.03
2018-05-26T05:41:37.200Z,10.13
2018-05-26T05:44:03.229Z,10.60
2018-05-26T05:46:29.255Z,10.90
2018-05-26T05:48:56.044Z,10.67
2018-05-26T05:51:22.077Z,10.97
2018-05-26T05:53:48.096Z,11.30
2018-05-26T05:56:14.201Z,10.50
2018-05-26T05:58:40.236Z,11.47
2018-05-26T06:01:06.262Z,10.07
2018-05-26T06:03:32.274Z,9.77
2018-05-26T06:05:58.310Z,9.77
2018-05-26T06:08:24.338Z,9.27
2018-05-26T06:10:50.357Z,9.13
2018-05-26T06:13:16.384Z,9.10
2018-05-26T06:15:42.462Z,9.83
2018-05-26T06:18:08.495Z,9.80
2018-05-26T06:20:34.513Z,9.60
2018-05-26T06:23:00.561Z,9.47
2018-05-26T06:25:26.588Z,9.57
2018-05-26T06:27:52.625Z,8.90
2018-05-26T06:30:18.650Z,9.43
2018-05-26T06:32:44.721Z,8.30
2018-05-26T06:35:10.767Z,9.17
2018-05-26T06:37:36.824Z,7.60
2018-05-26T06:40:02.848Z,7.60
2018-05-26T06:42:29.639Z,7.60
2018-05-26T06:44:55.661Z,7.20
2018-05-26T06:47:21.709Z,6.70
2018-05-26T06:49:47.726Z,6.23
2018-05-26T06:52:13.761Z,7.33
2018-05-26T06:54:40.529Z,6.77
2018-05-26T06:57:06.557Z,6.27
2018-05-26T06:59:32.589Z,6.30
2018-05-26T07:01:58.618Z,5.73
2018-05-26T07:04:25.402Z,6.33
2018-05-26T07:06:51.422Z,6.53
2018-05-26T07:09:17.466Z,6.10
2018-05-26T07:11:43.469Z,5.50
2018-05-26T07:14:10.227Z,6.23
2018-05-26T07:16:36.989Z,6.27
2018-05-26T07:19:03.005Z,6.70
2018-05-26T07:21:29.769Z,6.23
2018-05-26T07:23:56.541Z,6.60
2018-05-26T07:26:22.544Z,6.00
2018-05-26T07:28:49.304Z,6.30
2018-05-26T07:31:16.087Z,5.20
2018-05-26T07:33:42.153Z,5.20
2018-05-26T07:36:08.133Z,5.33
2018-05-26T07:38:34.897Z,5.27
2018-05-26T07:41:00.921Z,5.10
2018-05-26T07:43:27.267Z,4.30
2018-05-26T07:45:54.045Z,4.87
2018-05-26T07:48:20.070Z,5.80
2018-05-26T07:50:46.111Z,4.60
2018-05-26T07:53:12.235Z,4.90
2018-05-26T07:55:38.209Z,4.20
2018-05-26T07:58:04.260Z,4.07
2018-05-26T08:00:30.322Z,3.97
2018-05-26T08:02:56.341Z,3.12
2018-05-26T08:05:22.378Z,3.83
2018-05-26T08:07:48.369Z,3.10
2018-05-26T08:10:14.385Z,4.03
2018-05-26T08:12:40.393Z,4.20
2018-05-26T08:15:06.509Z,3.95
2018-05-26T08:17:32.516Z,3.80
2018-05-26T08:19:58.539Z,4.00
2018-05-26T08:22:24.557Z,3.65
2018-05-26T08:24:50.609Z,3.53
2018-05-26T08:27:16.731Z,3.97
2018-05-26T08:29:42.783Z,3.17
2018-05-26T08:32:08.842Z,4.10
2018-05-26T08:34:34.919Z,3.65
2018-05-26T08:37:01.666Z,3.05
2018-05-26T08:39:28.432Z,3.55
2018-05-26T08:41:55.241Z,3.47
2018-05-26T08:44:21.310Z,3.62
2018-05-26T08:46:47.314Z,3.28
2018-05-26T08:49:13.389Z,3.35
2018-05-26T08:51:40.186Z,3.95
2018-05-26T08:54:06.255Z,3.83
2018-05-26T08:56:32.225Z,3.33
2018-05-26T08:58:58.973Z,3.42
2018-05-26T09:01:25.738Z,3.75
2018-05-26T09:03:51.873Z,3.78
2018-05-26T09:06:17.937Z,3.00
2018-05-26T09:08:44.721Z,3.53
2018-05-26T09:11:10.779Z,3.22
2018-05-26T09:13:37.650Z,3.10
2018-05-26T09:16:04.522Z,3.58
2018-05-26T09:18:30.649Z,3.15
2018-05-26T09:20:56.697Z,3.30
2018-05-26T09:23:22.794Z,3.17
2018-05-26T09:25:48.806Z,3.37
2018-05-26T09:28:14.845Z,3.30
2018-05-26T09:30:40.856Z,2.97
2018-05-26T09:33:06.942Z,3.30
2018-05-26T09:35:32.984Z,3.35
2018-05-26T09:37:59.743Z,3.30
2018-05-26T09:40:26.523Z,3.05
2018-05-26T09:42:52.527Z,3.10
2018-05-26T09:45:19.281Z,3.53
2018-05-26T09:47:46.093Z,3.35
2018-05-26T09:50:12.162Z,3.30
2018-05-26T09:52:38.181Z,3.22
2018-05-26T09:55:04.314Z,3.12
2018-05-26T09:57:30.363Z,2.30
2018-05-26T09:59:56.357Z,2.80
2018-05-26T10:02:22.369Z,3.00
2018-05-26T10:04:48.446Z,2.90
2018-05-26T10:07:14.521Z,2.97
2018-05-26T10:09:41.286Z,2.53
2018-05-26T10:12:08.083Z,3.30
2018-05-26T10:14:34.100Z,2.78
2018-05-26T10:17:00.145Z,2.33
2018-05-26T10:19:26.150Z,2.85
2018-05-26T10:21:52.181Z,2.42
2018-05-26T10:24:18.939Z,2.80
2018-05-26T10:26:44.970Z,2.67
2018-05-26T10:29:11.741Z,2.65
2018-05-26T10:31:37.791Z,2.70
2018-05-26T10:34:03.817Z,2.72
2018-05-26T10:36:29.935Z,2.50
2018-05-26T10:38:55.986Z,2.70
2018-05-26T10:41:22.006Z,2.30
2018-05-26T10:43:48.047Z,2.78
2018-05-26T10:46:23.334Z,2.28
2018-05-26T10:48:49.404Z,2.80
2018-05-26T10:51:16.167Z,2.60
2018-05-26T10:53:42.983Z,2.70
2018-05-26T10:56:09.101Z,2.70
2018-05-26T10:58:35.186Z,2.30
2018-05-26T11:01:01.230Z,2.50
2018-05-26T11:03:27.260Z,2.50
2018-05-26T11:05:53.302Z,2.83
2018-05-26T11:08:20.079Z,2.75
2018-05-26T11:10:46.089Z,2.10
2018-05-26T11:13:12.109Z,2.08
2018-05-26T11:15:38.134Z,2.60
2018-05-26T11:18:04.145Z,2.50
2018-05-26T11:20:30.185Z,2.55
2018-05-26T11:22:56.223Z,2.37
2018-05-26T11:25:22.249Z,2.62
2018-05-26T11:27:48.279Z,3.22
2018-05-26T11:30:14.283Z,2.50
2018-05-26T11:32:41.051Z,2.30
2018-05-26T11:35:07.073Z,2.90
2018-05-26T11:37:33.861Z,2.50
2018-05-26T11:39:59.873Z,2.40
2018-05-26T11:42:26.648Z,2.55
2018-05-26T11:44:52.739Z,2.40
2018-05-26T11:47:18.744Z,2.55
2018-05-26T11:49:44.758Z,2.00
2018-05-26T11:52:12.465Z,2.37
2018-05-26T11:54:38.485Z,2.60
2018-05-26T11:57:04.494Z,2.85
2018-05-26T11:59:30.509Z,2.42
2018-05-26T12:01:57.268Z,2.50
2018-05-26T12:04:24.027Z,2.80
2018-05-26T12:06:50.043Z,2.42
2018-05-26T12:09:16.073Z,2.58
2018-05-26T12:11:42.110Z,2.60
2018-05-26T12:14:08.145Z,2.50
2018-05-26T12:16:34.173Z,2.50
2018-05-26T12:19:00.306Z,2.70
2018-05-26T12:21:26.369Z,2.67
2018-05-26T12:23:53.137Z,2.58
2018-05-26T12:26:19.174Z,2.50
2018-05-26T12:28:45.205Z,2.28
2018-05-26T12:31:11.972Z,2.37
2018-05-26T12:33:38.030Z,2.90
2018-05-26T12:36:04.063Z,2.58
2018-05-26T12:38:30.082Z,2.40
2018-05-26T12:40:56.128Z,2.65
2018-05-26T12:43:22.152Z,2.22
2018-05-26T12:45:48.182Z,2.67
2018-05-26T12:48:14.213Z,2.42
2018-05-26T12:50:40.994Z,1.75
2018-05-26T12:53:07.022Z,2.72
2018-05-26T12:55:33.076Z,2.83
2018-05-26T12:57:59.090Z,2.65
2018-05-26T13:00:25.121Z,2.62
2018-05-26T13:02:51.136Z,2.97
2018-05-26T13:05:17.913Z,2.30
2018-05-26T13:07:43.946Z,2.60
2018-05-26T13:10:09.985Z,2.37
2018-05-26T13:12:35.993Z,2.67
2018-05-26T13:15:02.775Z,2.33
2018-05-26T13:17:28.797Z,3.17
2018-05-26T13:19:55.560Z,2.40
2018-05-26T13:22:21.589Z,2.72
2018-05-26T13:24:48.346Z,2.72
2018-05-26T13:27:14.378Z,3.12
2018-05-26T13:29:40.419Z,2.83
2018-05-26T13:32:07.187Z,3.35
2018-05-26T13:34:33.209Z,2.97
2018-05-26T13:36:59.234Z,3.20
2018-05-26T13:39:25.997Z,3.00
2018-05-26T13:41:52.773Z,3.10
2018-05-26T13:44:18.791Z,2.90
2018-05-26T13:46:44.825Z,3.10
2018-05-26T13:49:11.631Z,3.10
2018-05-26T13:51:37.719Z,2.70
2018-05-26T13:54:03.703Z,3.17
2018-05-26T13:56:29.776Z,3.08
2018-05-26T13:58:55.777Z,2.37
2018-05-26T14:01:21.804Z,3.05
2018-05-26T14:03:47.830Z,2.58
2018-05-26T14:06:13.865Z,3.70
2018-05-26T14:08:39.885Z,2.58
2018-05-26T14:11:05.902Z,2.83
2018-05-26T14:13:31.902Z,2.70
2018-05-26T14:15:57.928Z,3.03
2018-05-26T14:18:23.941Z,2.80
2018-05-26T14:20:49.961Z,2.53
2018-05-26T14:23:15.978Z,2.60
2018-05-26T14:25:42.739Z,2.53
2018-05-26T14:28:08.764Z,2.83
2018-05-26T14:30:35.577Z,3.20
2018-05-26T14:33:01.598Z,2.70
2018-05-26T14:35:27.585Z,2.67
2018-05-26T14:37:54.348Z,2.62
2018-05-26T14:40:20.358Z,2.55
2018-05-26T14:42:46.389Z,2.92
2018-05-26T14:45:12.420Z,2.97
2018-05-26T14:47:38.454Z,2.40
2018-05-26T14:50:04.504Z,2.50
2018-05-26T14:52:30.513Z,2.60
2018-05-26T14:54:56.525Z,2.60
2018-05-26T14:57:22.541Z,2.90
2018-05-26T14:59:48.562Z,2.70
2018-05-26T15:02:15.360Z,2.95
2018-05-26T15:04:41.373Z,2.55
2018-05-26T15:07:07.385Z,3.15
2018-05-26T15:09:34.155Z,2.30
2018-05-26T15:12:00.177Z,2.80
2018-05-26T15:14:26.990Z,2.78
2018-05-26T15:16:53.101Z,2.70
2018-05-26T15:19:19.125Z,2.70
2018-05-26T15:21:45.150Z,2.50
2018-05-26T15:24:11.445Z,3.10
2018-05-26T15:26:37.453Z,2.50
2018-05-26T15:29:03.504Z,2.78
2018-05-26T15:31:29.533Z,2.90
2018-05-26T15:33:55.567Z,2.92
2018-05-26T15:36:21.588Z,2.90
2018-05-26T15:38:47.626Z,2.95
2018-05-26T15:41:13.653Z,2.37
2018-05-26T15:43:39.685Z,3.05
2018-05-26T15:46:05.731Z,2.67
2018-05-26T15:48:31.765Z,2.65
2018-05-26T15:50:57.781Z,2.70
2018-05-26T15:53:24.557Z,3.50
2018-05-26T15:55:50.629Z,3.30
2018-05-26T15:58:16.662Z,3.15
2018-05-26T16:00:42.677Z,2.70
2018-05-26T16:03:08.716Z,2.90
2018-05-26T16:05:34.745Z,2.92
2018-05-26T16:08:00.769Z,3.30
2018-05-26T16:10:26.786Z,3.17
2018-05-26T16:12:53.549Z,3.35
2018-05-26T16:15:19.574Z,3.03
2018-05-26T16:17:46.327Z,3.30
2018-05-26T16:20:13.105Z,3.37
2018-05-26T16:22:39.123Z,3.20
2018-05-26T16:25:05.897Z,3.30
2018-05-26T16:27:31.905Z,3.17
2018-05-26T16:29:58.670Z,3.03
2018-05-26T16:32:24.690Z,3.67
2018-05-26T16:34:51.452Z,3.53
2018-05-26T16:37:18.201Z,3.03
2018-05-26T16:39:44.961Z,3.97
2018-05-26T16:42:11.782Z,3.40
2018-05-26T16:44:37.804Z,3.33
2018-05-26T16:47:03.857Z,3.80
2018-05-26T16:49:37.775Z,4.00
2018-05-26T16:52:03.791Z,3.90
2018-05-26T16:54:29.824Z,4.00
2018-05-26T16:56:55.833Z,3.70
2018-05-26T16:59:28.814Z,5.10
2018-05-26T17:01:55.570Z,4.07
2018-05-26T17:04:22.339Z,4.23
2018-05-26T17:06:48.345Z,4.27
2018-05-26T17:09:15.137Z,4.20
2018-05-26T17:11:41.155Z,5.10
2018-05-26T17:14:07.167Z,4.23
2018-05-26T17:16:33.238Z,3.90
2018-05-26T17:18:59.318Z,5.20
2018-05-26T17:21:25.372Z,4.77
2018-05-26T17:23:51.493Z,5.20
2018-05-26T17:26:17.525Z,4.50
2018-05-26T17:28:43.546Z,5.17
2018-05-26T17:31:09.581Z,4.50
2018-05-26T17:33:35.653Z,5.00
2018-05-26T17:36:01.694Z,4.90
2018-05-26T17:38:28.462Z,4.37
2018-05-26T17:40:55.225Z,4.43
2018-05-26T17:43:21.277Z,5.27
2018-05-26T17:45:48.029Z,5.43
2018-05-26T17:48:14.045Z,5.20
2018-05-26T17:50:40.820Z,5.53
2018-05-26T17:53:06.834Z,5.40
2018-05-26T17:55:33.665Z,5.90
2018-05-26T17:57:59.719Z,5.40
2018-05-26T18:00:26.502Z,5.83
2018-05-26T18:02:52.545Z,5.33
2018-05-26T18:05:18.583Z,5.70
2018-05-26T18:07:44.611Z,5.80
2018-05-26T18:10:10.692Z,5.70
2018-05-26T18:12:36.738Z,5.80
2018-05-26T18:15:02.787Z,5.83
2018-05-26T18:17:29.572Z,5.20
2018-05-26T18:19:55.604Z,5.63
2018-05-26T18:22:21.868Z,5.13
2018-05-26T18:24:48.107Z,5.53
2018-05-26T18:27:14.150Z,6.23
2018-05-26T18:29:40.212Z,5.97
2018-05-26T18:32:06.363Z,6.27
2018-05-26T18:34:32.497Z,6.17
2018-05-26T18:36:58.631Z,5.67
2018-05-26T18:39:24.669Z,5.87
2018-05-26T18:41:50.713Z,5.53
2018-05-26T18:44:16.734Z,6.77
2018-05-26T18:46:42.773Z,6.23
2018-05-26T18:49:08.910Z,6.30
2018-05-26T18:51:34.957Z,7.57
2018-05-26T18:54:01.107Z,6.27
2018-05-26T18:56:27.876Z,6.13
2018-05-26T18:58:53.914Z,6.03
2018-05-26T19:01:19.941Z,6.60
2018-05-26T19:03:46.768Z,6.40
2018-05-26T19:06:12.793Z,5.80
2018-05-26T19:08:38.825Z,6.30
2018-05-26T19:11:04.869Z,6.60
2018-05-26T19:13:30.879Z,7.00
2018-05-26T19:15:56.940Z,6.43
2018-05-26T19:18:22.915Z,6.80
2018-05-26T19:20:49.673Z,6.37
2018-05-26T19:23:15.744Z,6.77
2018-05-26T19:25:41.773Z,7.00
2018-05-26T19:28:07.788Z,6.80
2018-05-26T19:30:33.790Z,7.50
2018-05-26T19:32:59.916Z,5.60
2018-05-26T19:35:25.930Z,6.10
2018-05-26T19:37:51.979Z,4.80
2018-05-26T19:40:17.998Z,5.60
2018-05-26T19:42:44.016Z,5.70
2018-05-26T19:45:10.056Z,5.53
2018-05-26T19:47:36.134Z,18.77
2018-05-26T19:50:02.208Z,6.57
2018-05-26T19:52:28.234Z,4.60
2018-05-26T19:54:54.288Z,6.77
2018-05-26T19:57:20.308Z,18.30
2018-05-26T19:59:47.077Z,18.60
2018-05-26T20:02:13.105Z,24.37
2018-05-26T20:04:39.129Z,9.53
2018-05-26T20:07:05.890Z,6.03
2018-05-26T20:09:32.657Z,4.87
2018-05-26T20:11:58.681Z,5.00
2018-05-26T20:14:25.439Z,5.10
2018-05-26T20:16:52.219Z,4.67
2018-05-26T20:19:18.291Z,5.00
2018-05-26T20:21:44.268Z,4.73
2018-05-26T20:24:10.289Z,4.40
2018-05-26T20:26:36.297Z,3.93
2018-05-26T20:29:02.333Z,4.80
2018-05-26T20:31:28.358Z,4.33
2018-05-26T20:33:54.381Z,4.53
2018-05-26T20:36:20.527Z,4.77
2018-05-26T20:38:46.568Z,3.80
2018-05-26T20:41:12.589Z,4.27
2018-05-26T20:43:38.661Z,4.10
2018-05-26T20:46:04.679Z,3.77
2018-05-26T20:48:30.694Z,3.87
2018-05-26T20:50:56.743Z,3.37
2018-05-26T20:53:22.789Z,4.20
2018-05-26T20:55:48.821Z,3.77
2018-05-26T20:58:14.961Z,4.27
2018-05-26T21:00:40.985Z,4.87
2018-05-26T21:03:07.009Z,4.60
2018-05-26T21:05:33.037Z,4.17
2018-05-26T21:07:59.059Z,4.60
2018-05-26T21:10:25.082Z,4.70
2018-05-26T21:12:51.105Z,4.20
2018-05-26T21:15:17.875Z,4.57
2018-05-26T21:17:43.916Z,4.43
2018-05-26T21:20:09.946Z,4.60
2018-05-26T21:22:35.973Z,4.80
2018-05-26T21:25:02.741Z,4.80
2018-05-26T21:27:28.766Z,4.90
2018-05-26T21:29:54.780Z,4.90
2018-05-26T21:32:20.784Z,4.70
2018-05-26T21:34:46.806Z,4.90
2018-05-26T21:37:12.831Z,5.50
2018-05-26T21:39:38.849Z,4.80
2018-05-26T21:42:04.885Z,5.47
2018-05-26T21:44:30.966Z,4.77
2018-05-26T21:46:56.990Z,3.83
2018-05-26T21:49:23.001Z,3.63
2018-05-26T21:51:49.028Z,4.30
2018-05-26T21:54:15.044Z,4.50
2018-05-26T21:56:41.798Z,3.77
2018-05-26T21:59:08.556Z,4.00
2018-05-26T22:01:35.329Z,5.40
2018-05-26T22:04:01.353Z,3.70
2018-05-26T22:06:27.416Z,4.70
2018-05-26T22:08:53.438Z,4.60
2018-05-26T22:11:19.469Z,4.43
2018-05-26T22:13:45.511Z,4.27
2018-05-26T22:16:11.545Z,4.47
2018-05-26T22:18:37.575Z,4.07
2018-05-26T22:21:03.614Z,4.10
2018-05-26T22:23:29.644Z,3.87
2018-05-26T22:25:55.673Z,4.03
2018-05-26T22:28:21.711Z,3.53
2018-05-26T22:30:47.734Z,3.80
2018-05-26T22:33:14.524Z,3.67
2018-05-26T22:35:40.581Z,4.03
2018-05-26T22:38:06.575Z,3.40
2018-05-26T22:40:32.614Z,3.33
2018-05-26T22:42:58.637Z,3.43
2018-05-26T22:45:25.416Z,3.63
2018-05-26T22:47:51.457Z,4.07
2018-05-26T22:50:17.475Z,3.93
2018-05-26T22:52:43.540Z,4.07
2018-05-26T22:55:09.579Z,3.70
2018-05-26T22:57:35.618Z,3.63
2018-05-26T23:00:01.646Z,4.17
2018-05-26T23:02:27.675Z,4.63
2018-05-26T23:04:53.697Z,3.90
2018-05-26T23:07:19.728Z,4.80
2018-05-26T23:09:45.765Z,4.90
2018-05-26T23:12:11.792Z,4.50
2018-05-26T23:14:37.820Z,5.20
2018-05-26T23:17:04.597Z,4.30
2018-05-26T23:19:30.624Z,4.90
2018-05-26T23:21:56.657Z,5.03
2018-05-26T23:24:22.688Z,5.20
2018-05-26T23:26:48.729Z,5.40
2018-05-26T23:29:14.762Z,5.47
2018-05-26T23:31:40.793Z,4.70
2018-05-26T23:34:06.833Z,4.90
2018-05-26T23:36:32.866Z,5.93
2018-05-26T23:38:58.887Z,5.40
2018-05-26T23:41:25.656Z,4.97
2018-05-26T23:43:51.702Z,5.03
2018-05-26T23:46:17.728Z,4.90
2018-05-26T23:48:43.757Z,5.00
2018-05-26T23:51:09.781Z,6.67
2018-05-26T23:53:36.564Z,5.13
2018-05-26T23:56:02.602Z,4.40
2018-05-26T23:58:28.654Z,5.63
